sensor_id;sensor_type;location;lat;lon;timestamp;pressure;altitude;pressure_sealevel;temperature;humidity
3748;BME280;1889;50.058;8.688;2023-05-25T00:01:23;100910.30;;;13.99;57.08
3748;BME280;1889;50.058;8.688;2023-05-25T00:03:53;100920.50;;;13.95;57.36
3748;BME280;1889;50.058;8.688;2023-05-25T00:06:22;100920.56;;;13.94;57.55
3748;BME280;1889;50.058;8.688;2023-05-25T00:08:53;100914.56;;;14.29;56.66
3748;BME280;1889;50.058;8.688;2023-05-25T00:11:24;100914.38;;;14.38;56.27
3748;BME280;1889;50.058;8.688;2023-05-25T00:13:54;100916.39;;;13.79;58.29
3748;BME280;1889;50.058;8.688;2023-05-25T00:16:23;100916.05;;;13.99;57.88
3748;BME280;1889;50.058;8.688;2023-05-25T00:18:52;100920.87;;;13.77;58.52
3748;BME280;1889;50.058;8.688;2023-05-25T00:21:23;100910.63;;;13.81;58.43
3748;BME280;1889;50.058;8.688;2023-05-25T00:23:53;100910.71;;;13.78;58.71
3748;BME280;1889;50.058;8.688;2023-05-25T00:26:22;100910.32;;;13.98;58.19
3748;BME280;1889;50.058;8.688;2023-05-25T00:28:51;100912.56;;;13.95;58.22
3748;BME280;1889;50.058;8.688;2023-05-25T00:31:21;100906.33;;;13.99;58.16
3748;BME280;1889;50.058;8.688;2023-05-25T00:33:50;100914.84;;;13.69;59.24
3748;BME280;1889;50.058;8.688;2023-05-25T00:36:19;100909.16;;;13.40;60.33
3748;BME280;1889;50.058;8.688;2023-05-25T00:38:49;100904.99;;;13.77;59.37
3748;BME280;1889;50.058;8.688;2023-05-25T00:41:18;100905.16;;;13.68;59.66
3748;BME280;1889;50.058;8.688;2023-05-25T00:43:48;100906.19;;;13.59;60.33
3748;BME280;1889;50.058;8.688;2023-05-25T00:46:17;100907.56;;;13.55;60.57
3748;BME280;1889;50.058;8.688;2023-05-25T00:48:47;100910.87;;;12.84;62.84
3748;BME280;1889;50.058;8.688;2023-05-25T00:51:16;100907.30;;;12.88;63.18
3748;BME280;1889;50.058;8.688;2023-05-25T00:53:46;100911.50;;;13.31;61.80
3748;BME280;1889;50.058;8.688;2023-05-25T00:56:17;100912.67;;;13.40;61.67
3748;BME280;1889;50.058;8.688;2023-05-25T00:58:50;100915.72;;;13.69;60.70
3748;BME280;1889;50.058;8.688;2023-05-25T01:01:21;100916.90;;;13.52;61.30
3748;BME280;1889;50.058;8.688;2023-05-25T01:03:53;100915.46;;;13.58;61.21
3748;BME280;1889;50.058;8.688;2023-05-25T01:06:25;100909.75;;;13.30;62.12
3748;BME280;1889;50.058;8.688;2023-05-25T01:09:00;100913.39;;;13.23;62.60
3748;BME280;1889;50.058;8.688;2023-05-25T01:11:35;100909.31;;;13.56;61.54
3748;BME280;1889;50.058;8.688;2023-05-25T01:14:05;100914.63;;;12.97;63.52
3748;BME280;1889;50.058;8.688;2023-05-25T01:16:35;100906.58;;;13.36;62.42
3748;BME280;1889;50.058;8.688;2023-05-25T01:19:04;100909.14;;;13.66;61.29
3748;BME280;1889;50.058;8.688;2023-05-25T01:21:41;100907.97;;;13.83;60.70
3748;BME280;1889;50.058;8.688;2023-05-25T01:24:18;100909.47;;;13.72;61.30
3748;BME280;1889;50.058;8.688;2023-05-25T01:26:57;100911.24;;;13.95;60.45
3748;BME280;1889;50.058;8.688;2023-05-25T01:29:23;100908.00;;;14.03;60.11
3748;BME280;1889;50.058;8.688;2023-05-25T01:31:55;100910.52;;;13.87;60.73
3748;BME280;1889;50.058;8.688;2023-05-25T01:34:26;100917.27;;;14.03;60.09
3748;BME280;1889;50.058;8.688;2023-05-25T01:36:56;100910.55;;;14.09;59.82
3748;BME280;1889;50.058;8.688;2023-05-25T01:39:25;100914.98;;;14.30;59.33
3748;BME280;1889;50.058;8.688;2023-05-25T01:41:55;100918.81;;;14.15;59.61
3748;BME280;1889;50.058;8.688;2023-05-25T01:44:25;100920.84;;;14.25;59.41
3748;BME280;1889;50.058;8.688;2023-05-25T01:47:02;100922.05;;;14.29;59.12
3748;BME280;1889;50.058;8.688;2023-05-25T01:49:55;100918.46;;;14.33;59.02
3748;BME280;1889;50.058;8.688;2023-05-25T01:52:29;100919.14;;;13.74;60.80
3748;BME280;1889;50.058;8.688;2023-05-25T01:55:07;100921.64;;;13.82;60.78
3748;BME280;1889;50.058;8.688;2023-05-25T01:57:39;100926.05;;;14.05;59.99
3748;BME280;1889;50.058;8.688;2023-05-25T02:00:12;100922.34;;;14.16;59.71
3748;BME280;1889;50.058;8.688;2023-05-25T02:02:42;100922.43;;;14.33;59.11
3748;BME280;1889;50.058;8.688;2023-05-25T02:05:12;100926.31;;;14.16;59.60
3748;BME280;1889;50.058;8.688;2023-05-25T02:07:42;100932.83;;;14.20;59.50
3748;BME280;1889;50.058;8.688;2023-05-25T02:10:11;100927.20;;;13.92;60.30
3748;BME280;1889;50.058;8.688;2023-05-25T02:12:41;100928.97;;;13.92;60.42
3748;BME280;1889;50.058;8.688;2023-05-25T02:15:10;100925.16;;;14.06;60.04
3748;BME280;1889;50.058;8.688;2023-05-25T02:17:40;100922.77;;;14.17;59.62
3748;BME280;1889;50.058;8.688;2023-05-25T02:20:10;100921.44;;;14.17;59.60
3748;BME280;1889;50.058;8.688;2023-05-25T02:22:40;100917.52;;;14.13;59.71
3748;BME280;1889;50.058;8.688;2023-05-25T02:25:09;100910.27;;;14.23;59.39
3748;BME280;1889;50.058;8.688;2023-05-25T02:27:39;100903.16;;;14.27;59.32
3748;BME280;1889;50.058;8.688;2023-05-25T02:30:09;100902.91;;;14.17;59.60
3748;BME280;1889;50.058;8.688;2023-05-25T02:32:38;100903.25;;;14.21;59.41
3748;BME280;1889;50.058;8.688;2023-05-25T02:35:08;100910.67;;;14.26;59.28
3748;BME280;1889;50.058;8.688;2023-05-25T02:37:38;100909.29;;;14.27;59.14
3748;BME280;1889;50.058;8.688;2023-05-25T02:40:08;100904.95;;;14.25;59.32
3748;BME280;1889;50.058;8.688;2023-05-25T02:42:38;100911.14;;;14.24;59.30
3748;BME280;1889;50.058;8.688;2023-05-25T02:45:09;100909.84;;;14.22;59.39
3748;BME280;1889;50.058;8.688;2023-05-25T02:47:38;100906.80;;;14.20;59.41
3748;BME280;1889;50.058;8.688;2023-05-25T02:50:08;100906.00;;;14.16;59.57
3748;BME280;1889;50.058;8.688;2023-05-25T02:52:37;100906.33;;;14.22;59.43
3748;BME280;1889;50.058;8.688;2023-05-25T02:55:07;100906.48;;;14.14;59.60
3748;BME280;1889;50.058;8.688;2023-05-25T02:57:38;100909.13;;;14.14;59.56
3748;BME280;1889;50.058;8.688;2023-05-25T03:00:08;100907.78;;;14.16;59.50
3748;BME280;1889;50.058;8.688;2023-05-25T03:02:40;100907.84;;;14.11;59.66
3748;BME280;1889;50.058;8.688;2023-05-25T03:05:09;100913.84;;;14.21;59.49
3748;BME280;1889;50.058;8.688;2023-05-25T03:07:39;100913.84;;;14.21;59.49
3748;BME280;1889;50.058;8.688;2023-05-25T03:10:10;100912.97;;;14.20;59.54
3748;BME280;1889;50.058;8.688;2023-05-25T03:12:39;100904.20;;;14.18;59.53
3748;BME280;1889;50.058;8.688;2023-05-25T03:15:09;100910.77;;;14.20;59.39
3748;BME280;1889;50.058;8.688;2023-05-25T03:17:40;100918.81;;;14.15;59.43
3748;BME280;1889;50.058;8.688;2023-05-25T03:20:10;100918.81;;;14.15;59.43
3748;BME280;1889;50.058;8.688;2023-05-25T03:22:39;100921.48;;;14.13;59.48
3748;BME280;1889;50.058;8.688;2023-05-25T03:25:09;100926.03;;;14.07;59.61
3748;BME280;1889;50.058;8.688;2023-05-25T03:27:40;100934.83;;;14.09;59.82
3748;BME280;1889;50.058;8.688;2023-05-25T03:30:09;100934.83;;;14.09;59.82
3748;BME280;1889;50.058;8.688;2023-05-25T03:32:39;100930.88;;;14.07;59.73
3748;BME280;1889;50.058;8.688;2023-05-25T03:35:09;100931.30;;;14.08;59.78
3748;BME280;1889;50.058;8.688;2023-05-25T03:37:38;100929.91;;;14.11;59.72
3748;BME280;1889;50.058;8.688;2023-05-25T03:40:08;100922.09;;;14.05;59.89
3748;BME280;1889;50.058;8.688;2023-05-25T03:42:38;100921.73;;;14.01;59.99
3748;BME280;1889;50.058;8.688;2023-05-25T03:45:08;100928.23;;;14.07;59.78
3748;BME280;1889;50.058;8.688;2023-05-25T03:47:37;100930.10;;;14.02;59.79
3748;BME280;1889;50.058;8.688;2023-05-25T03:50:07;100937.31;;;13.94;59.95
3748;BME280;1889;50.058;8.688;2023-05-25T03:52:36;100937.31;;;13.94;59.95
3748;BME280;1889;50.058;8.688;2023-05-25T03:55:06;100937.31;;;13.94;60.19
3748;BME280;1889;50.058;8.688;2023-05-25T03:57:35;100935.40;;;14.02;59.96
3748;BME280;1889;50.058;8.688;2023-05-25T04:00:05;100940.28;;;14.00;60.02
3748;BME280;1889;50.058;8.688;2023-05-25T04:02:36;100941.19;;;13.99;60.13
3748;BME280;1889;50.058;8.688;2023-05-25T04:05:06;100941.61;;;14.00;60.25
3748;BME280;1889;50.058;8.688;2023-05-25T04:07:35;100941.59;;;14.01;60.16
3748;BME280;1889;50.058;8.688;2023-05-25T04:10:05;100941.59;;;14.01;60.16
3748;BME280;1889;50.058;8.688;2023-05-25T04:12:34;100940.21;;;14.03;60.35
3748;BME280;1889;50.058;8.688;2023-05-25T04:15:04;100944.14;;;14.06;60.24
3748;BME280;1889;50.058;8.688;2023-05-25T04:17:35;100941.14;;;14.02;60.44
3748;BME280;1889;50.058;8.688;2023-05-25T04:20:06;100947.02;;;13.70;61.41
3748;BME280;1889;50.058;8.688;2023-05-25T04:22:36;100956.02;;;13.84;61.05
3748;BME280;1889;50.058;8.688;2023-05-25T04:25:08;100966.42;;;13.94;61.03
3748;BME280;1889;50.058;8.688;2023-05-25T04:27:38;100966.42;;;13.94;61.03
3748;BME280;1889;50.058;8.688;2023-05-25T04:30:09;100963.54;;;14.06;60.67
3748;BME280;1889;50.058;8.688;2023-05-25T04:32:39;100969.52;;;14.18;60.30
3748;BME280;1889;50.058;8.688;2023-05-25T04:35:08;100982.36;;;14.15;60.39
3748;BME280;1889;50.058;8.688;2023-05-25T04:37:38;100986.28;;;14.18;60.54
3748;BME280;1889;50.058;8.688;2023-05-25T04:40:08;100986.28;;;14.18;60.54
3748;BME280;1889;50.058;8.688;2023-05-25T04:42:41;100984.81;;;14.26;60.47
3748;BME280;1889;50.058;8.688;2023-05-25T04:45:12;100990.17;;;13.97;61.38
3748;BME280;1889;50.058;8.688;2023-05-25T04:47:43;100996.47;;;14.16;60.90
3748;BME280;1889;50.058;8.688;2023-05-25T04:50:12;100987.52;;;13.97;61.53
3748;BME280;1889;50.058;8.688;2023-05-25T04:52:42;100989.09;;;14.09;61.29
3748;BME280;1889;50.058;8.688;2023-05-25T04:55:11;100989.89;;;14.12;61.01
3748;BME280;1889;50.058;8.688;2023-05-25T04:57:40;100997.03;;;14.09;61.22
3748;BME280;1889;50.058;8.688;2023-05-25T05:00:10;100992.02;;;14.18;61.13
3748;BME280;1889;50.058;8.688;2023-05-25T05:02:40;101002.14;;;13.69;62.94
3748;BME280;1889;50.058;8.688;2023-05-25T05:05:09;101002.14;;;13.69;62.94
3748;BME280;1889;50.058;8.688;2023-05-25T05:07:38;101003.27;;;14.05;62.15
3748;BME280;1889;50.058;8.688;2023-05-25T05:10:08;101011.23;;;13.51;63.61
3748;BME280;1889;50.058;8.688;2023-05-25T05:12:38;101003.20;;;13.84;63.04
3748;BME280;1889;50.058;8.688;2023-05-25T05:15:07;101003.20;;;13.84;63.04
3748;BME280;1889;50.058;8.688;2023-05-25T05:17:36;101009.38;;;13.85;63.25
3748;BME280;1889;50.058;8.688;2023-05-25T05:20:06;101006.91;;;13.99;62.86
3748;BME280;1889;50.058;8.688;2023-05-25T05:22:36;101013.05;;;14.01;62.83
3748;BME280;1889;50.058;8.688;2023-05-25T05:25:06;101016.04;;;14.31;61.70
3748;BME280;1889;50.058;8.688;2023-05-25T05:27:35;101016.87;;;14.34;61.55
3748;BME280;1889;50.058;8.688;2023-05-25T05:30:05;101027.08;;;13.53;63.33
3748;BME280;1889;50.058;8.688;2023-05-25T05:32:34;101027.00;;;13.29;64.26
3748;BME280;1889;50.058;8.688;2023-05-25T05:35:04;101037.03;;;12.99;65.32
3748;BME280;1889;50.058;8.688;2023-05-25T05:37:33;101038.55;;;13.79;63.39
3748;BME280;1889;50.058;8.688;2023-05-25T05:40:03;101038.55;;;13.79;63.39
3748;BME280;1889;50.058;8.688;2023-05-25T05:42:32;101038.21;;;13.73;63.83
3748;BME280;1889;50.058;8.688;2023-05-25T05:45:02;101038.21;;;13.73;63.83
3748;BME280;1889;50.058;8.688;2023-05-25T05:47:31;101037.21;;;14.07;62.87
3748;BME280;1889;50.058;8.688;2023-05-25T05:50:00;101031.73;;;13.92;62.93
3748;BME280;1889;50.058;8.688;2023-05-25T05:52:30;101041.02;;;13.91;63.10
3748;BME280;1889;50.058;8.688;2023-05-25T05:54:59;101030.77;;;14.22;62.58
3748;BME280;1889;50.058;8.688;2023-05-25T05:57:29;101033.44;;;14.45;62.06
3748;BME280;1889;50.058;8.688;2023-05-25T05:59:58;101033.44;;;14.45;62.06
3748;BME280;1889;50.058;8.688;2023-05-25T06:02:27;101031.97;;;14.53;61.15
3748;BME280;1889;50.058;8.688;2023-05-25T06:04:57;101038.30;;;14.91;60.39
3748;BME280;1889;50.058;8.688;2023-05-25T06:07:26;101042.74;;;15.09;59.92
3748;BME280;1889;50.058;8.688;2023-05-25T06:09:57;101050.31;;;14.41;61.15
3748;BME280;1889;50.058;8.688;2023-05-25T06:12:27;101047.31;;;14.82;60.09
3748;BME280;1889;50.058;8.688;2023-05-25T06:14:56;101046.92;;;14.32;60.91
3748;BME280;1889;50.058;8.688;2023-05-25T06:17:26;101050.20;;;14.21;61.27
3748;BME280;1889;50.058;8.688;2023-05-25T06:19:56;101054.71;;;14.16;62.16
3748;BME280;1889;50.058;8.688;2023-05-25T06:22:26;101054.71;;;14.16;62.16
3748;BME280;1889;50.058;8.688;2023-05-25T06:24:56;101056.25;;;14.27;61.64
3748;BME280;1889;50.058;8.688;2023-05-25T06:27:25;101049.16;;;14.04;62.29
3748;BME280;1889;50.058;8.688;2023-05-25T06:29:54;101049.16;;;14.04;62.29
3748;BME280;1889;50.058;8.688;2023-05-25T06:34:42;101058.23;;;14.43;61.71
3748;BME280;1889;50.058;8.688;2023-05-25T06:37:11;101058.55;;;14.50;61.59
3748;BME280;1889;50.058;8.688;2023-05-25T06:39:41;101055.30;;;14.58;61.42
3748;BME280;1889;50.058;8.688;2023-05-25T06:42:11;101054.21;;;14.44;61.41
3748;BME280;1889;50.058;8.688;2023-05-25T06:44:40;101054.21;;;14.44;61.41
3748;BME280;1889;50.058;8.688;2023-05-25T06:47:09;101058.02;;;14.54;61.35
3748;BME280;1889;50.058;8.688;2023-05-25T06:49:39;101052.14;;;15.05;60.40
3748;BME280;1889;50.058;8.688;2023-05-25T06:52:08;101059.84;;;15.36;58.86
3748;BME280;1889;50.058;8.688;2023-05-25T06:54:37;101059.28;;;15.41;58.89
3748;BME280;1889;50.058;8.688;2023-05-25T06:57:07;101053.59;;;14.76;59.26
3748;BME280;1889;50.058;8.688;2023-05-25T06:59:36;101058.03;;;14.98;59.22
3748;BME280;1889;50.058;8.688;2023-05-25T07:02:06;101062.45;;;14.98;59.20
3748;BME280;1889;50.058;8.688;2023-05-25T07:04:35;101059.61;;;14.84;59.36
3748;BME280;1889;50.058;8.688;2023-05-25T07:07:05;101054.64;;;14.68;59.75
3748;BME280;1889;50.058;8.688;2023-05-25T07:09:34;101059.62;;;14.62;59.27
3748;BME280;1889;50.058;8.688;2023-05-25T07:12:04;101069.84;;;14.82;59.94
3748;BME280;1889;50.058;8.688;2023-05-25T07:14:34;101069.84;;;14.82;59.94
3748;BME280;1889;50.058;8.688;2023-05-25T07:17:04;101059.89;;;14.71;59.69
3748;BME280;1889;50.058;8.688;2023-05-25T07:19:34;101058.95;;;14.96;59.49
3748;BME280;1889;50.058;8.688;2023-05-25T07:22:03;101058.48;;;14.98;59.61
3748;BME280;1889;50.058;8.688;2023-05-25T07:24:32;101055.45;;;15.16;59.40
3748;BME280;1889;50.058;8.688;2023-05-25T07:27:02;101050.64;;;15.12;59.41
3748;BME280;1889;50.058;8.688;2023-05-25T07:29:31;101054.48;;;14.99;59.55
3748;BME280;1889;50.058;8.688;2023-05-25T07:32:01;101047.33;;;15.23;59.13
3748;BME280;1889;50.058;8.688;2023-05-25T07:34:30;101048.97;;;15.48;58.75
3748;BME280;1889;50.058;8.688;2023-05-25T07:36:59;101047.41;;;15.59;57.96
3748;BME280;1889;50.058;8.688;2023-05-25T07:39:29;101059.32;;;15.60;57.53
3748;BME280;1889;50.058;8.688;2023-05-25T07:41:58;101056.39;;;15.52;58.16
3748;BME280;1889;50.058;8.688;2023-05-25T07:44:28;101061.00;;;15.82;57.34
3748;BME280;1889;50.058;8.688;2023-05-25T07:46:58;101061.00;;;15.82;57.34
3748;BME280;1889;50.058;8.688;2023-05-25T07:49:27;101051.93;;;15.73;57.22
3748;BME280;1889;50.058;8.688;2023-05-25T07:51:56;101047.05;;;15.74;58.01
3748;BME280;1889;50.058;8.688;2023-05-25T07:54:26;101051.33;;;16.15;55.64
3748;BME280;1889;50.058;8.688;2023-05-25T07:56:55;101064.14;;;16.33;54.50
3748;BME280;1889;50.058;8.688;2023-05-25T07:59:25;101064.14;;;16.33;54.50
3748;BME280;1889;50.058;8.688;2023-05-25T08:01:54;101051.06;;;16.76;53.10
3748;BME280;1889;50.058;8.688;2023-05-25T08:04:24;101051.06;;;16.76;53.10
3748;BME280;1889;50.058;8.688;2023-05-25T08:06:53;101041.55;;;17.13;52.10
3748;BME280;1889;50.058;8.688;2023-05-25T08:09:22;101041.55;;;17.13;52.10
3748;BME280;1889;50.058;8.688;2023-05-25T08:11:52;101037.58;;;16.82;52.45
3748;BME280;1889;50.058;8.688;2023-05-25T08:14:21;101040.77;;;16.78;51.73
3748;BME280;1889;50.058;8.688;2023-05-25T08:16:51;101043.30;;;16.99;52.79
3748;BME280;1889;50.058;8.688;2023-05-25T08:19:20;101042.23;;;17.05;51.41
3748;BME280;1889;50.058;8.688;2023-05-25T08:21:49;101042.23;;;17.05;51.41
3748;BME280;1889;50.058;8.688;2023-05-25T08:24:19;101044.43;;;16.91;51.39
3748;BME280;1889;50.058;8.688;2023-05-25T08:26:48;101050.02;;;17.11;50.76
3748;BME280;1889;50.058;8.688;2023-05-25T08:29:17;101044.61;;;16.85;51.72
3748;BME280;1889;50.058;8.688;2023-05-25T08:31:47;101045.98;;;16.98;52.18
3748;BME280;1889;50.058;8.688;2023-05-25T08:34:17;101043.58;;;16.74;51.99
3748;BME280;1889;50.058;8.688;2023-05-25T08:36:47;101043.58;;;16.74;51.99
3748;BME280;1889;50.058;8.688;2023-05-25T08:39:16;101050.42;;;16.83;51.77
3748;BME280;1889;50.058;8.688;2023-05-25T08:41:46;101047.30;;;16.68;52.12
3748;BME280;1889;50.058;8.688;2023-05-25T08:44:16;101043.67;;;17.02;51.80
3748;BME280;1889;50.058;8.688;2023-05-25T08:46:47;101051.77;;;17.12;50.65
3748;BME280;1889;50.058;8.688;2023-05-25T08:49:17;101041.95;;;17.29;50.78
3748;BME280;1889;50.058;8.688;2023-05-25T08:51:53;101044.95;;;17.33;51.08
3748;BME280;1889;50.058;8.688;2023-05-25T08:54:34;101045.80;;;17.48;50.98
3748;BME280;1889;50.058;8.688;2023-05-25T08:57:16;101057.45;;;17.73;50.68
3748;BME280;1889;50.058;8.688;2023-05-25T08:59:59;101055.30;;;17.84;51.06
3748;BME280;1889;50.058;8.688;2023-05-25T09:05:23;101050.43;;;17.84;50.08
3748;BME280;1889;50.058;8.688;2023-05-25T09:07:52;101052.38;;;17.92;49.99
3748;BME280;1889;50.058;8.688;2023-05-25T09:10:23;101043.17;;;18.02;49.63
3748;BME280;1889;50.058;8.688;2023-05-25T09:12:55;101045.78;;;18.30;49.18
3748;BME280;1889;50.058;8.688;2023-05-25T09:15:24;101045.23;;;18.45;49.04
3748;BME280;1889;50.058;8.688;2023-05-25T09:17:53;101035.17;;;18.02;48.77
3748;BME280;1889;50.058;8.688;2023-05-25T09:20:23;101042.81;;;18.13;48.93
3748;BME280;1889;50.058;8.688;2023-05-25T09:22:54;101038.39;;;18.38;48.49
3748;BME280;1889;50.058;8.688;2023-05-25T09:25:25;101048.88;;;18.43;48.24
3748;BME280;1889;50.058;8.688;2023-05-25T09:27:55;101053.38;;;18.41;47.84
3748;BME280;1889;50.058;8.688;2023-05-25T09:30:28;101039.53;;;18.56;47.33
3748;BME280;1889;50.058;8.688;2023-05-25T09:33:15;101046.16;;;18.57;47.03
3748;BME280;1889;50.058;8.688;2023-05-25T09:35:47;101048.84;;;18.18;48.60
3748;BME280;1889;50.058;8.688;2023-05-25T09:38:16;101048.78;;;18.46;48.33
3748;BME280;1889;50.058;8.688;2023-05-25T09:40:46;101045.75;;;18.43;48.27
3748;BME280;1889;50.058;8.688;2023-05-25T09:43:15;101048.81;;;18.71;48.19
3748;BME280;1889;50.058;8.688;2023-05-25T09:45:45;101048.81;;;18.71;48.19
3748;BME280;1889;50.058;8.688;2023-05-25T09:48:14;101045.45;;;18.77;47.43
3748;BME280;1889;50.058;8.688;2023-05-25T09:50:44;101049.63;;;18.84;48.21
3748;BME280;1889;50.058;8.688;2023-05-25T09:53:14;101049.63;;;18.84;48.21
3748;BME280;1889;50.058;8.688;2023-05-25T09:55:43;101050.73;;;18.90;47.50
3748;BME280;1889;50.058;8.688;2023-05-25T09:58:14;101053.98;;;18.98;46.87
3748;BME280;1889;50.058;8.688;2023-05-25T10:00:44;101050.01;;;18.62;47.23
3748;BME280;1889;50.058;8.688;2023-05-25T10:03:14;101052.30;;;19.08;46.94
3748;BME280;1889;50.058;8.688;2023-05-25T10:05:44;101052.30;;;19.08;46.94
3748;BME280;1889;50.058;8.688;2023-05-25T10:08:16;101047.32;;;18.87;46.63
3748;BME280;1889;50.058;8.688;2023-05-25T10:10:47;101053.12;;;18.86;47.58
3748;BME280;1889;50.058;8.688;2023-05-25T10:13:20;101053.75;;;18.93;47.42
3748;BME280;1889;50.058;8.688;2023-05-25T10:15:52;101053.75;;;18.93;47.42
3748;BME280;1889;50.058;8.688;2023-05-25T10:18:26;101050.34;;;19.01;47.40
3748;BME280;1889;50.058;8.688;2023-05-25T10:21:02;101060.59;;;19.00;46.89
3748;BME280;1889;50.058;8.688;2023-05-25T10:23:37;101049.75;;;19.16;47.11
3748;BME280;1889;50.058;8.688;2023-05-25T10:26:10;101057.72;;;19.29;46.67
3748;BME280;1889;50.058;8.688;2023-05-25T10:28:43;101064.84;;;18.94;46.72
3748;BME280;1889;50.058;8.688;2023-05-25T10:31:14;101053.80;;;18.91;46.98
3748;BME280;1889;50.058;8.688;2023-05-25T10:33:44;101060.56;;;19.13;47.07
3748;BME280;1889;50.058;8.688;2023-05-25T10:36:14;101060.56;;;19.13;47.07
3748;BME280;1889;50.058;8.688;2023-05-25T10:38:45;101049.34;;;19.15;46.71
3748;BME280;1889;50.058;8.688;2023-05-25T10:41:15;101051.48;;;19.40;46.12
3748;BME280;1889;50.058;8.688;2023-05-25T10:43:46;101040.77;;;19.54;45.51
3748;BME280;1889;50.058;8.688;2023-05-25T10:46:15;101041.59;;;19.66;45.99
3748;BME280;1889;50.058;8.688;2023-05-25T10:48:47;101034.36;;;19.58;45.72
3748;BME280;1889;50.058;8.688;2023-05-25T10:51:19;101036.51;;;19.60;45.49
3748;BME280;1889;50.058;8.688;2023-05-25T10:53:59;101040.04;;;19.82;45.52
3748;BME280;1889;50.058;8.688;2023-05-25T10:56:29;101032.89;;;19.83;44.60
3748;BME280;1889;50.058;8.688;2023-05-25T10:58:58;101037.11;;;19.78;43.92
3748;BME280;1889;50.058;8.688;2023-05-25T11:01:30;101032.78;;;19.96;43.63
3748;BME280;1889;50.058;8.688;2023-05-25T11:09:26;101024.13;;;20.21;44.37
3748;BME280;1889;50.058;8.688;2023-05-25T11:14:35;101024.56;;;20.63;43.67
3748;BME280;1889;50.058;8.688;2023-05-25T11:17:18;101017.28;;;20.66;42.59
3748;BME280;1889;50.058;8.688;2023-05-25T11:24:53;101025.83;;;20.64;42.27
3748;BME280;1889;50.058;8.688;2023-05-25T11:27:27;101018.74;;;20.53;43.04
3748;BME280;1889;50.058;8.688;2023-05-25T11:29:54;101015.53;;;20.65;43.20
3748;BME280;1889;50.058;8.688;2023-05-25T11:32:26;101005.12;;;20.59;42.70
3748;BME280;1889;50.058;8.688;2023-05-25T11:34:56;101012.46;;;20.54;43.15
3748;BME280;1889;50.058;8.688;2023-05-25T11:37:27;100995.88;;;20.46;42.70
3748;BME280;1889;50.058;8.688;2023-05-25T11:39:58;101004.99;;;20.42;42.70
3748;BME280;1889;50.058;8.688;2023-05-25T11:42:27;101006.58;;;20.66;42.49
3748;BME280;1889;50.058;8.688;2023-05-25T11:45:00;101005.53;;;20.79;42.16
3748;BME280;1889;50.058;8.688;2023-05-25T11:47:29;101003.22;;;20.61;42.64
3748;BME280;1889;50.058;8.688;2023-05-25T11:49:58;100998.47;;;20.97;42.44
3748;BME280;1889;50.058;8.688;2023-05-25T11:52:27;100998.34;;;21.08;42.50
3748;BME280;1889;50.058;8.688;2023-05-25T11:54:56;100996.95;;;21.20;41.72
3748;BME280;1889;50.058;8.688;2023-05-25T11:57:25;100988.98;;;21.18;41.61
3748;BME280;1889;50.058;8.688;2023-05-25T11:59:57;100981.92;;;21.26;42.28
3748;BME280;1889;50.058;8.688;2023-05-25T12:02:35;100997.08;;;21.36;41.86
3748;BME280;1889;50.058;8.688;2023-05-25T12:05:00;100984.09;;;21.37;42.13
3748;BME280;1889;50.058;8.688;2023-05-25T12:07:30;100991.48;;;21.67;42.88
3748;BME280;1889;50.058;8.688;2023-05-25T12:10:10;100993.66;;;21.51;41.45
3748;BME280;1889;50.058;8.688;2023-05-25T12:12:47;100985.58;;;21.61;41.50
3748;BME280;1889;50.058;8.688;2023-05-25T12:15:21;100982.53;;;21.86;41.80
3748;BME280;1889;50.058;8.688;2023-05-25T12:17:51;100976.17;;;22.23;42.06
3748;BME280;1889;50.058;8.688;2023-05-25T12:20:21;100968.59;;;22.22;41.21
3748;BME280;1889;50.058;8.688;2023-05-25T12:22:51;100973.88;;;22.41;41.51
3748;BME280;1889;50.058;8.688;2023-05-25T12:25:20;100975.45;;;22.45;41.57
3748;BME280;1889;50.058;8.688;2023-05-25T12:28:10;100969.10;;;22.55;40.53
3748;BME280;1889;50.058;8.688;2023-05-25T12:30:40;100965.79;;;22.58;40.80
3748;BME280;1889;50.058;8.688;2023-05-25T12:33:11;100970.89;;;22.63;41.03
3748;BME280;1889;50.058;8.688;2023-05-25T12:35:46;100979.30;;;22.48;39.13
3748;BME280;1889;50.058;8.688;2023-05-25T12:38:19;100964.95;;;22.40;40.25
3748;BME280;1889;50.058;8.688;2023-05-25T12:41:05;100969.52;;;22.89;38.43
3748;BME280;1889;50.058;8.688;2023-05-25T12:43:38;100962.23;;;23.15;39.56
3748;BME280;1889;50.058;8.688;2023-05-25T12:46:09;100961.47;;;23.36;39.10
3748;BME280;1889;50.058;8.688;2023-05-25T12:48:39;100959.86;;;23.17;38.11
3748;BME280;1889;50.058;8.688;2023-05-25T12:51:08;100956.81;;;23.08;38.41
3748;BME280;1889;50.058;8.688;2023-05-25T12:53:49;100946.54;;;23.54;38.91
3748;BME280;1889;50.058;8.688;2023-05-25T12:56:18;100948.83;;;23.76;39.22
3748;BME280;1889;50.058;8.688;2023-05-25T12:58:47;100951.54;;;24.13;37.57
3748;BME280;1889;50.058;8.688;2023-05-25T13:01:16;100945.65;;;24.58;37.04
3748;BME280;1889;50.058;8.688;2023-05-25T13:03:45;100949.59;;;24.66;37.49
3748;BME280;1889;50.058;8.688;2023-05-25T13:06:14;100954.92;;;24.96;36.59
3748;BME280;1889;50.058;8.688;2023-05-25T13:08:43;100950.36;;;24.83;36.01
3748;BME280;1889;50.058;8.688;2023-05-25T13:11:12;100949.48;;;24.03;37.08
3748;BME280;1889;50.058;8.688;2023-05-25T13:13:41;100944.86;;;23.90;36.96
3748;BME280;1889;50.058;8.688;2023-05-25T13:16:11;100949.69;;;23.77;37.60
3748;BME280;1889;50.058;8.688;2023-05-25T13:18:40;100938.27;;;24.17;37.25
3748;BME280;1889;50.058;8.688;2023-05-25T13:21:09;100931.50;;;24.33;37.15
3748;BME280;1889;50.058;8.688;2023-05-25T13:23:38;100934.41;;;24.44;37.09
3748;BME280;1889;50.058;8.688;2023-05-25T13:26:07;100936.91;;;24.68;36.70
3748;BME280;1889;50.058;8.688;2023-05-25T13:28:37;100936.03;;;23.95;36.51
3748;BME280;1889;50.058;8.688;2023-05-25T13:31:06;100936.01;;;23.43;37.68
3748;BME280;1889;50.058;8.688;2023-05-25T13:33:35;100943.27;;;23.49;37.73
3748;BME280;1889;50.058;8.688;2023-05-25T13:36:05;100932.59;;;23.32;38.34
3748;BME280;1889;50.058;8.688;2023-05-25T13:38:37;100935.32;;;23.24;38.49
3748;BME280;1889;50.058;8.688;2023-05-25T13:41:06;100947.84;;;23.00;38.63
3748;BME280;1889;50.058;8.688;2023-05-25T13:43:36;100935.01;;;23.05;38.78
3748;BME280;1889;50.058;8.688;2023-05-25T13:46:05;100936.50;;;22.87;38.72